KBKS

Brooks County Airport

Falfurrias, Texas, USA
METAR KBKS 162235Z AUTO 03003KT 1 1/2SM VV007 21/M05 A3023 RMK AO1 VIS 1/2V4 T02131048
Observed Flight Rules
Dec-16 @ 22:35 UTC (10 minutes ago) Instrument Flight Rules
Wind Visibility Clouds
30° at 3 knots 1 1/2 miles
  • Vertical visibility at 700' AGL
Temperatures Readings
Current 21°C / 70°F
Dewpoint -5°C / 23°F
Humidity 17%
Altimeter 30.23" Hg
Pressure 1024 hPa
Elevation 34
METAR KBKS 162235Z AUTO 03003KT 1 1/2SM VV007 21/M05 A3023 RMK AO1 VIS 1/2V4 T02131048
Observed Flight Rules
Dec-16 @ 22:35 UTC
(10 minutes ago)
LIFR
Wind Visibility
30° at 3 knots 1 1/2 miles
Clouds
  • Vertical visibility at 700' AGL
Temperature Dewpoint
21°C / 70°F -5°C / 23°F
Humidity Altimeter Pressure
17% 30.23" Hg 1024 hPa